sensor_id;sensor_type;location;lat;lon;timestamp;P1;durP1;ratioP1;P2;durP2;ratioP2
63693;SDS011;49839;51.798;10.954;2023-09-30T00:01:08;10.40;;;2.25;;
63693;SDS011;49839;51.798;10.954;2023-09-30T00:03:36;7.40;;;2.13;;
63693;SDS011;49839;51.798;10.954;2023-09-30T00:06:05;7.20;;;1.70;;
63693;SDS011;49839;51.798;10.954;2023-09-30T00:08:34;5.65;;;1.05;;
63693;SDS011;49839;51.798;10.954;2023-09-30T00:11:01;8.52;;;2.13;;
63693;SDS011;49839;51.798;10.954;2023-09-30T00:13:30;8.40;;;1.95;;
63693;SDS011;49839;51.798;10.954;2023-09-30T00:15:58;8.60;;;2.00;;
63693;SDS011;49839;51.798;10.954;2023-09-30T00:18:26;14.70;;;2.80;;
63693;SDS011;49839;51.798;10.954;2023-09-30T00:20:54;13.95;;;2.08;;
63693;SDS011;49839;51.798;10.954;2023-09-30T00:23:23;11.05;;;2.17;;
63693;SDS011;49839;51.798;10.954;2023-09-30T00:25:52;11.25;;;2.60;;
63693;SDS011;49839;51.798;10.954;2023-09-30T00:28:20;9.30;;;2.20;;
63693;SDS011;49839;51.798;10.954;2023-09-30T00:30:48;12.38;;;2.08;;
63693;SDS011;49839;51.798;10.954;2023-09-30T00:33:16;6.32;;;1.60;;
63693;SDS011;49839;51.798;10.954;2023-09-30T00:35:44;12.45;;;2.40;;
63693;SDS011;49839;51.798;10.954;2023-09-30T00:38:12;15.48;;;2.90;;
63693;SDS011;49839;51.798;10.954;2023-09-30T00:40:46;11.90;;;2.35;;
63693;SDS011;49839;51.798;10.954;2023-09-30T00:43:19;9.70;;;2.08;;
63693;SDS011;49839;51.798;10.954;2023-09-30T00:45:47;12.82;;;2.65;;
63693;SDS011;49839;51.798;10.954;2023-09-30T00:48:15;12.05;;;2.55;;
63693;SDS011;49839;51.798;10.954;2023-09-30T00:50:44;15.48;;;2.80;;
63693;SDS011;49839;51.798;10.954;2023-09-30T00:53:12;9.43;;;2.67;;
63693;SDS011;49839;51.798;10.954;2023-09-30T00:55:40;12.30;;;2.83;;
63693;SDS011;49839;51.798;10.954;2023-09-30T00:58:08;13.10;;;2.80;;
63693;SDS011;49839;51.798;10.954;2023-09-30T01:00:38;14.50;;;3.10;;
63693;SDS011;49839;51.798;10.954;2023-09-30T01:03:05;13.20;;;2.67;;
63693;SDS011;49839;51.798;10.954;2023-09-30T01:05:34;8.73;;;2.55;;
63693;SDS011;49839;51.798;10.954;2023-09-30T01:08:02;11.23;;;2.60;;
63693;SDS011;49839;51.798;10.954;2023-09-30T01:10:30;12.05;;;3.15;;
63693;SDS011;49839;51.798;10.954;2023-09-30T01:12:58;12.23;;;3.00;;
63693;SDS011;49839;51.798;10.954;2023-09-30T01:15:26;14.93;;;2.70;;
63693;SDS011;49839;51.798;10.954;2023-09-30T01:17:57;13.35;;;2.63;;
63693;SDS011;49839;51.798;10.954;2023-09-30T01:20:25;10.10;;;2.63;;
63693;SDS011;49839;51.798;10.954;2023-09-30T01:22:54;11.60;;;2.30;;
63693;SDS011;49839;51.798;10.954;2023-09-30T01:25:24;12.02;;;2.92;;
63693;SDS011;49839;51.798;10.954;2023-09-30T01:27:52;13.40;;;2.53;;
63693;SDS011;49839;51.798;10.954;2023-09-30T01:30:20;9.50;;;2.45;;
63693;SDS011;49839;51.798;10.954;2023-09-30T01:32:48;13.68;;;2.20;;
63693;SDS011;49839;51.798;10.954;2023-09-30T01:35:17;10.23;;;2.57;;
63693;SDS011;49839;51.798;10.954;2023-09-30T01:37:45;12.55;;;2.70;;
63693;SDS011;49839;51.798;10.954;2023-09-30T01:40:14;12.00;;;2.67;;
63693;SDS011;49839;51.798;10.954;2023-09-30T01:42:44;10.00;;;2.63;;
63693;SDS011;49839;51.798;10.954;2023-09-30T01:45:12;11.88;;;2.75;;
63693;SDS011;49839;51.798;10.954;2023-09-30T01:47:40;13.80;;;2.08;;
63693;SDS011;49839;51.798;10.954;2023-09-30T01:50:08;13.35;;;2.60;;
63693;SDS011;49839;51.798;10.954;2023-09-30T01:52:38;11.82;;;2.38;;
63693;SDS011;49839;51.798;10.954;2023-09-30T01:55:06;14.10;;;2.30;;
63693;SDS011;49839;51.798;10.954;2023-09-30T01:57:36;11.20;;;2.10;;
63693;SDS011;49839;51.798;10.954;2023-09-30T02:00:04;11.48;;;2.38;;
63693;SDS011;49839;51.798;10.954;2023-09-30T02:02:36;10.95;;;2.22;;
63693;SDS011;49839;51.798;10.954;2023-09-30T02:05:04;11.55;;;2.10;;
63693;SDS011;49839;51.798;10.954;2023-09-30T02:07:34;12.32;;;2.60;;
63693;SDS011;49839;51.798;10.954;2023-09-30T02:10:02;11.20;;;2.20;;
63693;SDS011;49839;51.798;10.954;2023-09-30T02:12:30;8.60;;;1.40;;
63693;SDS011;49839;51.798;10.954;2023-09-30T02:14:59;9.75;;;1.83;;
63693;SDS011;49839;51.798;10.954;2023-09-30T02:17:27;10.43;;;1.95;;
63693;SDS011;49839;51.798;10.954;2023-09-30T02:19:54;17.08;;;2.50;;
63693;SDS011;49839;51.798;10.954;2023-09-30T02:22:22;11.45;;;2.20;;
63693;SDS011;49839;51.798;10.954;2023-09-30T02:24:51;12.50;;;2.00;;
63693;SDS011;49839;51.798;10.954;2023-09-30T02:27:18;12.10;;;2.05;;
63693;SDS011;49839;51.798;10.954;2023-09-30T02:29:46;11.60;;;2.55;;
63693;SDS011;49839;51.798;10.954;2023-09-30T02:32:15;13.48;;;2.50;;
63693;SDS011;49839;51.798;10.954;2023-09-30T02:34:44;8.98;;;1.63;;
63693;SDS011;49839;51.798;10.954;2023-09-30T02:37:12;11.88;;;1.98;;
63693;SDS011;49839;51.798;10.954;2023-09-30T02:39:40;13.77;;;2.38;;
63693;SDS011;49839;51.798;10.954;2023-09-30T02:42:08;10.55;;;1.98;;
63693;SDS011;49839;51.798;10.954;2023-09-30T02:44:36;11.88;;;2.08;;
63693;SDS011;49839;51.798;10.954;2023-09-30T02:47:04;12.70;;;2.35;;
63693;SDS011;49839;51.798;10.954;2023-09-30T02:49:33;10.95;;;1.85;;
63693;SDS011;49839;51.798;10.954;2023-09-30T02:52:01;9.63;;;2.15;;
63693;SDS011;49839;51.798;10.954;2023-09-30T02:54:29;12.95;;;2.40;;
63693;SDS011;49839;51.798;10.954;2023-09-30T02:56:58;17.58;;;2.63;;
63693;SDS011;49839;51.798;10.954;2023-09-30T02:59:26;15.75;;;2.42;;
63693;SDS011;49839;51.798;10.954;2023-09-30T03:01:53;10.52;;;1.70;;
63693;SDS011;49839;51.798;10.954;2023-09-30T03:04:22;13.70;;;2.20;;
63693;SDS011;49839;51.798;10.954;2023-09-30T03:09:22;11.80;;;2.03;;
63693;SDS011;49839;51.798;10.954;2023-09-30T03:11:50;11.00;;;2.10;;
63693;SDS011;49839;51.798;10.954;2023-09-30T03:14:17;13.25;;;2.13;;
63693;SDS011;49839;51.798;10.954;2023-09-30T03:16:45;9.98;;;2.08;;
63693;SDS011;49839;51.798;10.954;2023-09-30T03:19:13;11.30;;;2.33;;
63693;SDS011;49839;51.798;10.954;2023-09-30T03:21:42;10.57;;;2.10;;
63693;SDS011;49839;51.798;10.954;2023-09-30T03:24:12;12.25;;;1.98;;
63693;SDS011;49839;51.798;10.954;2023-09-30T03:26:39;12.70;;;2.58;;
63693;SDS011;49839;51.798;10.954;2023-09-30T03:29:08;12.55;;;2.65;;
63693;SDS011;49839;51.798;10.954;2023-09-30T03:31:36;18.05;;;2.92;;
63693;SDS011;49839;51.798;10.954;2023-09-30T03:34:04;11.00;;;2.05;;
63693;SDS011;49839;51.798;10.954;2023-09-30T03:36:32;14.45;;;2.08;;
63693;SDS011;49839;51.798;10.954;2023-09-30T03:39:00;9.73;;;2.22;;
63693;SDS011;49839;51.798;10.954;2023-09-30T03:41:33;15.18;;;2.65;;
63693;SDS011;49839;51.798;10.954;2023-09-30T03:44:03;11.02;;;1.85;;
63693;SDS011;49839;51.798;10.954;2023-09-30T03:46:31;10.13;;;1.88;;
63693;SDS011;49839;51.798;10.954;2023-09-30T03:48:58;9.32;;;1.80;;
63693;SDS011;49839;51.798;10.954;2023-09-30T03:51:26;11.98;;;2.30;;
63693;SDS011;49839;51.798;10.954;2023-09-30T03:53:54;7.43;;;1.67;;
63693;SDS011;49839;51.798;10.954;2023-09-30T03:56:22;10.02;;;1.85;;
63693;SDS011;49839;51.798;10.954;2023-09-30T03:58:51;12.18;;;2.13;;
63693;SDS011;49839;51.798;10.954;2023-09-30T04:01:19;11.40;;;1.70;;
63693;SDS011;49839;51.798;10.954;2023-09-30T04:03:47;12.65;;;2.60;;
63693;SDS011;49839;51.798;10.954;2023-09-30T04:06:14;12.40;;;1.85;;
63693;SDS011;49839;51.798;10.954;2023-09-30T04:08:42;8.25;;;1.48;;
63693;SDS011;49839;51.798;10.954;2023-09-30T04:11:10;13.70;;;1.88;;
63693;SDS011;49839;51.798;10.954;2023-09-30T04:13:44;12.93;;;1.95;;
63693;SDS011;49839;51.798;10.954;2023-09-30T04:16:13;13.23;;;2.33;;
63693;SDS011;49839;51.798;10.954;2023-09-30T04:18:40;9.43;;;1.73;;
63693;SDS011;49839;51.798;10.954;2023-09-30T04:21:08;14.88;;;2.90;;
63693;SDS011;49839;51.798;10.954;2023-09-30T04:23:36;14.48;;;1.88;;
63693;SDS011;49839;51.798;10.954;2023-09-30T04:26:04;12.13;;;1.92;;
63693;SDS011;49839;51.798;10.954;2023-09-30T04:28:31;12.65;;;1.63;;
63693;SDS011;49839;51.798;10.954;2023-09-30T04:31:00;12.33;;;1.80;;
63693;SDS011;49839;51.798;10.954;2023-09-30T04:33:30;12.40;;;2.03;;
63693;SDS011;49839;51.798;10.954;2023-09-30T04:35:58;12.02;;;2.10;;
63693;SDS011;49839;51.798;10.954;2023-09-30T04:38:26;12.13;;;2.03;;
63693;SDS011;49839;51.798;10.954;2023-09-30T04:40:53;15.90;;;1.80;;
63693;SDS011;49839;51.798;10.954;2023-09-30T04:43:22;12.60;;;2.27;;
63693;SDS011;49839;51.798;10.954;2023-09-30T04:45:50;9.80;;;2.15;;
63693;SDS011;49839;51.798;10.954;2023-09-30T04:48:19;14.15;;;1.85;;
63693;SDS011;49839;51.798;10.954;2023-09-30T04:50:49;7.05;;;1.60;;
63693;SDS011;49839;51.798;10.954;2023-09-30T04:53:19;13.90;;;1.83;;
63693;SDS011;49839;51.798;10.954;2023-09-30T04:55:47;9.85;;;2.03;;
63693;SDS011;49839;51.798;10.954;2023-09-30T04:58:15;12.57;;;2.17;;
63693;SDS011;49839;51.798;10.954;2023-09-30T05:00:43;12.80;;;1.70;;
63693;SDS011;49839;51.798;10.954;2023-09-30T05:03:11;13.85;;;1.85;;
63693;SDS011;49839;51.798;10.954;2023-09-30T05:05:39;12.18;;;2.00;;
63693;SDS011;49839;51.798;10.954;2023-09-30T05:08:09;12.73;;;2.00;;
63693;SDS011;49839;51.798;10.954;2023-09-30T05:10:39;10.98;;;2.05;;
63693;SDS011;49839;51.798;10.954;2023-09-30T05:13:06;16.85;;;2.60;;
63693;SDS011;49839;51.798;10.954;2023-09-30T05:15:34;12.02;;;1.83;;
63693;SDS011;49839;51.798;10.954;2023-09-30T05:18:02;14.32;;;2.35;;
63693;SDS011;49839;51.798;10.954;2023-09-30T05:20:31;12.43;;;1.83;;
63693;SDS011;49839;51.798;10.954;2023-09-30T05:22:59;10.35;;;1.83;;
63693;SDS011;49839;51.798;10.954;2023-09-30T05:25:28;9.15;;;1.40;;
63693;SDS011;49839;51.798;10.954;2023-09-30T05:27:56;9.10;;;1.48;;
63693;SDS011;49839;51.798;10.954;2023-09-30T05:30:24;9.85;;;1.90;;
63693;SDS011;49839;51.798;10.954;2023-09-30T05:32:51;9.98;;;1.80;;
63693;SDS011;49839;51.798;10.954;2023-09-30T05:35:20;13.68;;;2.00;;
63693;SDS011;49839;51.798;10.954;2023-09-30T05:37:49;12.27;;;2.13;;
63693;SDS011;49839;51.798;10.954;2023-09-30T05:42:53;11.80;;;1.63;;
63693;SDS011;49839;51.798;10.954;2023-09-30T05:45:21;10.75;;;2.42;;
63693;SDS011;49839;51.798;10.954;2023-09-30T05:47:52;8.93;;;1.73;;
63693;SDS011;49839;51.798;10.954;2023-09-30T05:50:21;12.50;;;1.80;;
63693;SDS011;49839;51.798;10.954;2023-09-30T05:52:52;9.23;;;1.67;;
63693;SDS011;49839;51.798;10.954;2023-09-30T05:55:21;9.63;;;1.77;;
63693;SDS011;49839;51.798;10.954;2023-09-30T05:57:53;8.60;;;1.52;;
63693;SDS011;49839;51.798;10.954;2023-09-30T06:00:22;10.43;;;1.55;;
63693;SDS011;49839;51.798;10.954;2023-09-30T06:02:54;11.68;;;2.03;;
63693;SDS011;49839;51.798;10.954;2023-09-30T06:05:22;8.85;;;1.90;;
63693;SDS011;49839;51.798;10.954;2023-09-30T06:07:50;9.02;;;1.70;;
63693;SDS011;49839;51.798;10.954;2023-09-30T06:10:18;8.43;;;1.40;;
63693;SDS011;49839;51.798;10.954;2023-09-30T06:12:45;6.65;;;1.35;;
63693;SDS011;49839;51.798;10.954;2023-09-30T06:15:15;12.18;;;2.20;;
63693;SDS011;49839;51.798;10.954;2023-09-30T06:17:48;13.55;;;2.55;;
63693;SDS011;49839;51.798;10.954;2023-09-30T06:20:16;9.07;;;1.80;;
63693;SDS011;49839;51.798;10.954;2023-09-30T06:22:44;9.93;;;1.92;;
63693;SDS011;49839;51.798;10.954;2023-09-30T06:25:13;9.75;;;1.95;;
63693;SDS011;49839;51.798;10.954;2023-09-30T06:27:42;9.63;;;1.42;;
63693;SDS011;49839;51.798;10.954;2023-09-30T06:30:11;11.70;;;2.13;;
63693;SDS011;49839;51.798;10.954;2023-09-30T06:32:42;9.70;;;1.90;;
63693;SDS011;49839;51.798;10.954;2023-09-30T06:35:11;9.07;;;2.00;;
63693;SDS011;49839;51.798;10.954;2023-09-30T06:37:39;7.88;;;1.52;;
63693;SDS011;49839;51.798;10.954;2023-09-30T06:40:08;9.80;;;2.13;;
63693;SDS011;49839;51.798;10.954;2023-09-30T06:42:39;7.10;;;1.85;;
63693;SDS011;49839;51.798;10.954;2023-09-30T06:45:07;10.10;;;2.10;;
63693;SDS011;49839;51.798;10.954;2023-09-30T06:50:08;11.02;;;2.10;;
63693;SDS011;49839;51.798;10.954;2023-09-30T06:52:38;11.60;;;2.38;;
63693;SDS011;49839;51.798;10.954;2023-09-30T06:55:08;7.80;;;1.75;;
63693;SDS011;49839;51.798;10.954;2023-09-30T06:57:37;8.98;;;1.63;;
63693;SDS011;49839;51.798;10.954;2023-09-30T07:00:07;8.98;;;2.40;;
63693;SDS011;49839;51.798;10.954;2023-09-30T07:02:36;8.10;;;1.77;;
63693;SDS011;49839;51.798;10.954;2023-09-30T07:05:06;7.75;;;1.73;;
63693;SDS011;49839;51.798;10.954;2023-09-30T07:07:35;8.35;;;1.85;;
63693;SDS011;49839;51.798;10.954;2023-09-30T07:10:03;8.30;;;1.85;;
63693;SDS011;49839;51.798;10.954;2023-09-30T07:12:32;10.77;;;1.67;;
63693;SDS011;49839;51.798;10.954;2023-09-30T07:15:03;8.07;;;1.80;;
63693;SDS011;49839;51.798;10.954;2023-09-30T07:17:31;6.18;;;1.20;;
63693;SDS011;49839;51.798;10.954;2023-09-30T07:20:00;9.20;;;1.73;;
63693;SDS011;49839;51.798;10.954;2023-09-30T07:22:30;11.20;;;1.50;;
63693;SDS011;49839;51.798;10.954;2023-09-30T07:25:14;6.13;;;1.50;;
63693;SDS011;49839;51.798;10.954;2023-09-30T07:27:44;7.72;;;1.40;;
63693;SDS011;49839;51.798;10.954;2023-09-30T07:30:14;9.25;;;1.83;;
63693;SDS011;49839;51.798;10.954;2023-09-30T07:32:42;8.60;;;1.20;;
63693;SDS011;49839;51.798;10.954;2023-09-30T07:35:11;8.27;;;1.80;;
63693;SDS011;49839;51.798;10.954;2023-09-30T07:37:42;6.38;;;1.48;;
63693;SDS011;49839;51.798;10.954;2023-09-30T07:42:40;8.50;;;1.55;;
63693;SDS011;49839;51.798;10.954;2023-09-30T07:45:09;11.50;;;1.88;;
63693;SDS011;49839;51.798;10.954;2023-09-30T07:47:37;7.35;;;1.65;;
63693;SDS011;49839;51.798;10.954;2023-09-30T07:50:06;9.05;;;1.70;;
63693;SDS011;49839;51.798;10.954;2023-09-30T07:52:36;13.57;;;1.73;;
63693;SDS011;49839;51.798;10.954;2023-09-30T07:55:07;9.65;;;1.80;;
63693;SDS011;49839;51.798;10.954;2023-09-30T07:57:36;7.40;;;1.50;;
63693;SDS011;49839;51.798;10.954;2023-09-30T08:00:05;11.75;;;2.05;;
63693;SDS011;49839;51.798;10.954;2023-09-30T08:02:42;8.07;;;1.60;;
63693;SDS011;49839;51.798;10.954;2023-09-30T08:05:10;8.52;;;1.70;;
63693;SDS011;49839;51.798;10.954;2023-09-30T08:07:38;9.30;;;1.65;;
63693;SDS011;49839;51.798;10.954;2023-09-30T08:10:08;9.73;;;1.60;;
63693;SDS011;49839;51.798;10.954;2023-09-30T08:12:40;12.35;;;2.78;;
63693;SDS011;49839;51.798;10.954;2023-09-30T08:15:09;6.60;;;1.70;;
63693;SDS011;49839;51.798;10.954;2023-09-30T08:17:39;8.18;;;1.88;;
63693;SDS011;49839;51.798;10.954;2023-09-30T08:20:08;7.07;;;1.75;;
63693;SDS011;49839;51.798;10.954;2023-09-30T08:22:37;7.88;;;1.85;;
63693;SDS011;49839;51.798;10.954;2023-09-30T08:25:05;7.63;;;1.50;;
63693;SDS011;49839;51.798;10.954;2023-09-30T08:27:35;9.63;;;1.70;;
63693;SDS011;49839;51.798;10.954;2023-09-30T08:30:04;6.85;;;1.40;;
63693;SDS011;49839;51.798;10.954;2023-09-30T08:32:33;7.93;;;1.65;;
63693;SDS011;49839;51.798;10.954;2023-09-30T08:35:01;5.80;;;1.37;;
63693;SDS011;49839;51.798;10.954;2023-09-30T08:37:29;6.78;;;1.70;;
63693;SDS011;49839;51.798;10.954;2023-09-30T08:39:57;5.77;;;1.13;;
63693;SDS011;49839;51.798;10.954;2023-09-30T08:42:26;7.00;;;1.70;;
63693;SDS011;49839;51.798;10.954;2023-09-30T08:45:00;8.38;;;1.50;;
63693;SDS011;49839;51.798;10.954;2023-09-30T08:47:28;7.32;;;1.42;;
63693;SDS011;49839;51.798;10.954;2023-09-30T08:49:56;6.30;;;1.30;;
63693;SDS011;49839;51.798;10.954;2023-09-30T08:52:32;6.35;;;1.60;;
63693;SDS011;49839;51.798;10.954;2023-09-30T08:55:04;9.55;;;1.90;;
63693;SDS011;49839;51.798;10.954;2023-09-30T08:57:35;6.82;;;1.67;;
63693;SDS011;49839;51.798;10.954;2023-09-30T09:00:07;8.90;;;1.98;;
63693;SDS011;49839;51.798;10.954;2023-09-30T09:02:39;6.05;;;1.48;;
63693;SDS011;49839;51.798;10.954;2023-09-30T09:05:07;4.20;;;1.38;;
63693;SDS011;49839;51.798;10.954;2023-09-30T09:07:37;6.97;;;2.05;;
63693;SDS011;49839;51.798;10.954;2023-09-30T09:10:06;7.28;;;1.38;;
63693;SDS011;49839;51.798;10.954;2023-09-30T09:12:37;6.90;;;1.80;;
63693;SDS011;49839;51.798;10.954;2023-09-30T09:15:21;6.38;;;1.60;;
63693;SDS011;49839;51.798;10.954;2023-09-30T09:17:50;6.60;;;1.70;;
63693;SDS011;49839;51.798;10.954;2023-09-30T09:20:19;5.82;;;1.30;;
63693;SDS011;49839;51.798;10.954;2023-09-30T09:22:49;7.03;;;1.63;;
63693;SDS011;49839;51.798;10.954;2023-09-30T09:25:20;7.07;;;1.58;;
63693;SDS011;49839;51.798;10.954;2023-09-30T09:27:50;6.18;;;1.33;;
63693;SDS011;49839;51.798;10.954;2023-09-30T09:30:18;5.25;;;1.33;;
63693;SDS011;49839;51.798;10.954;2023-09-30T09:35:34;5.78;;;1.45;;
63693;SDS011;49839;51.798;10.954;2023-09-30T09:38:02;6.55;;;1.33;;
63693;SDS011;49839;51.798;10.954;2023-09-30T09:40:31;7.88;;;1.70;;
63693;SDS011;49839;51.798;10.954;2023-09-30T09:43:00;9.82;;;2.17;;
63693;SDS011;49839;51.798;10.954;2023-09-30T09:45:32;5.95;;;1.40;;
63693;SDS011;49839;51.798;10.954;2023-09-30T09:48:01;5.95;;;1.20;;
63693;SDS011;49839;51.798;10.954;2023-09-30T09:50:32;16.88;;;2.47;;
63693;SDS011;49839;51.798;10.954;2023-09-30T09:53:03;7.47;;;1.40;;
63693;SDS011;49839;51.798;10.954;2023-09-30T09:55:31;6.05;;;1.50;;
63693;SDS011;49839;51.798;10.954;2023-09-30T09:58:00;4.90;;;1.40;;
63693;SDS011;49839;51.798;10.954;2023-09-30T10:00:31;7.15;;;1.40;;
63693;SDS011;49839;51.798;10.954;2023-09-30T10:03:02;6.57;;;1.70;;
63693;SDS011;49839;51.798;10.954;2023-09-30T10:05:30;7.05;;;1.52;;
63693;SDS011;49839;51.798;10.954;2023-09-30T10:08:01;6.40;;;1.48;;
63693;SDS011;49839;51.798;10.954;2023-09-30T10:10:35;7.38;;;1.60;;
63693;SDS011;49839;51.798;10.954;2023-09-30T10:13:03;9.93;;;1.63;;
63693;SDS011;49839;51.798;10.954;2023-09-30T10:15:36;6.10;;;1.45;;
63693;SDS011;49839;51.798;10.954;2023-09-30T10:18:06;6.40;;;1.40;;
63693;SDS011;49839;51.798;10.954;2023-09-30T10:20:41;14.40;;;1.48;;
63693;SDS011;49839;51.798;10.954;2023-09-30T10:23:17;6.88;;;1.40;;
63693;SDS011;49839;51.798;10.954;2023-09-30T10:25:47;7.28;;;1.25;;
63693;SDS011;49839;51.798;10.954;2023-09-30T10:28:34;5.18;;;1.15;;
63693;SDS011;49839;51.798;10.954;2023-09-30T10:31:10;6.40;;;1.20;;
63693;SDS011;49839;51.798;10.954;2023-09-30T10:36:48;4.68;;;1.10;;
63693;SDS011;49839;51.798;10.954;2023-09-30T10:53:55;5.63;;;1.23;;
63693;SDS011;49839;51.798;10.954;2023-09-30T10:56:23;7.90;;;1.50;;
63693;SDS011;49839;51.798;10.954;2023-09-30T10:58:59;6.38;;;1.42;;
63693;SDS011;49839;51.798;10.954;2023-09-30T11:01:31;6.75;;;1.30;;
63693;SDS011;49839;51.798;10.954;2023-09-30T11:04:03;6.63;;;1.38;;
63693;SDS011;49839;51.798;10.954;2023-09-30T11:06:39;5.93;;;1.70;;
63693;SDS011;49839;51.798;10.954;2023-09-30T11:09:14;5.18;;;1.10;;
63693;SDS011;49839;51.798;10.954;2023-09-30T11:11:46;5.88;;;1.33;;
63693;SDS011;49839;51.798;10.954;2023-09-30T11:14:16;5.57;;;1.50;;
63693;SDS011;49839;51.798;10.954;2023-09-30T11:16:48;6.40;;;1.08;;
63693;SDS011;49839;51.798;10.954;2023-09-30T11:19:17;6.28;;;1.30;;
63693;SDS011;49839;51.798;10.954;2023-09-30T11:21:50;6.32;;;1.17;;
63693;SDS011;49839;51.798;10.954;2023-09-30T11:24:23;7.57;;;1.30;;
63693;SDS011;49839;51.798;10.954;2023-09-30T11:26:52;5.68;;;1.20;;
63693;SDS011;49839;51.798;10.954;2023-09-30T11:29:21;5.80;;;1.40;;
63693;SDS011;49839;51.798;10.954;2023-09-30T11:31:51;7.63;;;1.52;;
63693;SDS011;49839;51.798;10.954;2023-09-30T11:34:19;8.52;;;1.30;;
63693;SDS011;49839;51.798;10.954;2023-09-30T11:36:47;5.13;;;1.13;;
63693;SDS011;49839;51.798;10.954;2023-09-30T11:39:21;6.78;;;1.55;;
63693;SDS011;49839;51.798;10.954;2023-09-30T11:41:51;5.88;;;1.40;;
63693;SDS011;49839;51.798;10.954;2023-09-30T11:44:19;7.35;;;1.38;;
63693;SDS011;49839;51.798;10.954;2023-09-30T11:46:47;9.25;;;1.58;;
63693;SDS011;49839;51.798;10.954;2023-09-30T11:49:26;6.25;;;1.30;;
63693;SDS011;49839;51.798;10.954;2023-09-30T11:51:56;5.07;;;1.20;;
63693;SDS011;49839;51.798;10.954;2023-09-30T11:54:29;4.95;;;1.35;;
63693;SDS011;49839;51.798;10.954;2023-09-30T11:57:00;7.22;;;1.10;;
63693;SDS011;49839;51.798;10.954;2023-09-30T11:59:29;5.15;;;1.10;;
63693;SDS011;49839;51.798;10.954;2023-09-30T12:02:00;4.93;;;1.10;;
63693;SDS011;49839;51.798;10.954;2023-09-30T12:04:40;6.47;;;1.10;;
63693;SDS011;49839;51.798;10.954;2023-09-30T12:07:08;6.25;;;1.33;;
63693;SDS011;49839;51.798;10.954;2023-09-30T12:09:37;6.78;;;1.40;;
63693;SDS011;49839;51.798;10.954;2023-09-30T12:12:07;5.75;;;0.95;;
63693;SDS011;49839;51.798;10.954;2023-09-30T12:14:37;5.97;;;1.33;;
63693;SDS011;49839;51.798;10.954;2023-09-30T12:17:05;6.43;;;1.33;;
63693;SDS011;49839;51.798;10.954;2023-09-30T12:19:33;6.88;;;1.20;;
63693;SDS011;49839;51.798;10.954;2023-09-30T12:22:00;6.78;;;1.13;;
63693;SDS011;49839;51.798;10.954;2023-09-30T12:24:28;5.88;;;1.13;;
63693;SDS011;49839;51.798;10.954;2023-09-30T12:26:56;7.63;;;1.10;;
63693;SDS011;49839;51.798;10.954;2023-09-30T12:29:25;5.57;;;1.15;;
63693;SDS011;49839;51.798;10.954;2023-09-30T12:31:53;6.50;;;0.90;;
63693;SDS011;49839;51.798;10.954;2023-09-30T12:34:21;4.55;;;1.02;;
63693;SDS011;49839;51.798;10.954;2023-09-30T12:36:50;4.67;;;1.10;;
63693;SDS011;49839;51.798;10.954;2023-09-30T12:39:18;5.53;;;0.93;;
63693;SDS011;49839;51.798;10.954;2023-09-30T12:41:51;5.55;;;1.30;;
63693;SDS011;49839;51.798;10.954;2023-09-30T12:44:18;6.75;;;1.30;;
63693;SDS011;49839;51.798;10.954;2023-09-30T12:46:48;5.70;;;0.85;;
63693;SDS011;49839;51.798;10.954;2023-09-30T12:49:15;7.07;;;1.23;;
63693;SDS011;49839;51.798;10.954;2023-09-30T12:51:44;6.72;;;1.00;;
63693;SDS011;49839;51.798;10.954;2023-09-30T12:54:12;6.05;;;1.10;;
63693;SDS011;49839;51.798;10.954;2023-09-30T12:56:41;7.90;;;1.00;;
63693;SDS011;49839;51.798;10.954;2023-09-30T12:59:09;5.53;;;1.00;;
63693;SDS011;49839;51.798;10.954;2023-09-30T13:01:36;5.18;;;1.05;;
63693;SDS011;49839;51.798;10.954;2023-09-30T13:04:07;4.83;;;1.00;;
63693;SDS011;49839;51.798;10.954;2023-09-30T13:06:38;5.05;;;1.02;;
63693;SDS011;49839;51.798;10.954;2023-09-30T13:11:35;6.68;;;1.10;;
63693;SDS011;49839;51.798;10.954;2023-09-30T13:14:04;4.50;;;0.90;;
63693;SDS011;49839;51.798;10.954;2023-09-30T13:16:32;5.22;;;1.17;;
63693;SDS011;49839;51.798;10.954;2023-09-30T13:19:00;4.00;;;1.08;;
63693;SDS011;49839;51.798;10.954;2023-09-30T13:21:30;3.90;;;1.05;;
63693;SDS011;49839;51.798;10.954;2023-09-30T13:23:58;4.95;;;1.08;;
63693;SDS011;49839;51.798;10.954;2023-09-30T13:26:26;6.25;;;1.30;;
63693;SDS011;49839;51.798;10.954;2023-09-30T13:28:55;6.85;;;1.20;;
63693;SDS011;49839;51.798;10.954;2023-09-30T13:31:23;4.72;;;1.20;;
63693;SDS011;49839;51.798;10.954;2023-09-30T13:33:51;5.18;;;1.30;;
63693;SDS011;49839;51.798;10.954;2023-09-30T13:36:18;7.20;;;1.30;;
63693;SDS011;49839;51.798;10.954;2023-09-30T13:38:48;6.32;;;1.80;;
63693;SDS011;49839;51.798;10.954;2023-09-30T13:43:46;5.00;;;1.10;;
63693;SDS011;49839;51.798;10.954;2023-09-30T13:46:14;6.50;;;1.42;;
63693;SDS011;49839;51.798;10.954;2023-09-30T13:48:42;5.80;;;1.30;;
63693;SDS011;49839;51.798;10.954;2023-09-30T13:51:10;6.22;;;1.35;;
63693;SDS011;49839;51.798;10.954;2023-09-30T13:53:38;5.82;;;1.00;;
63693;SDS011;49839;51.798;10.954;2023-09-30T13:56:07;5.53;;;1.10;;
63693;SDS011;49839;51.798;10.954;2023-09-30T13:58:36;4.68;;;1.27;;
63693;SDS011;49839;51.798;10.954;2023-09-30T14:01:04;4.80;;;1.35;;
63693;SDS011;49839;51.798;10.954;2023-09-30T14:03:33;7.95;;;1.58;;
63693;SDS011;49839;51.798;10.954;2023-09-30T14:06:01;4.57;;;1.30;;
63693;SDS011;49839;51.798;10.954;2023-09-30T14:08:30;4.32;;;1.10;;
63693;SDS011;49839;51.798;10.954;2023-09-30T14:10:58;7.57;;;1.30;;
63693;SDS011;49839;51.798;10.954;2023-09-30T14:13:27;7.50;;;1.63;;
63693;SDS011;49839;51.798;10.954;2023-09-30T14:15:55;4.05;;;1.17;;
63693;SDS011;49839;51.798;10.954;2023-09-30T14:18:23;6.55;;;1.30;;
63693;SDS011;49839;51.798;10.954;2023-09-30T14:20:51;6.65;;;1.48;;
63693;SDS011;49839;51.798;10.954;2023-09-30T14:23:19;6.55;;;1.40;;
63693;SDS011;49839;51.798;10.954;2023-09-30T14:25:47;7.40;;;1.88;;
63693;SDS011;49839;51.798;10.954;2023-09-30T14:28:15;5.40;;;1.30;;
63693;SDS011;49839;51.798;10.954;2023-09-30T14:30:44;6.10;;;1.45;;
63693;SDS011;49839;51.798;10.954;2023-09-30T14:33:12;5.75;;;1.42;;
63693;SDS011;49839;51.798;10.954;2023-09-30T14:35:40;5.18;;;1.50;;
63693;SDS011;49839;51.798;10.954;2023-09-30T14:38:10;5.32;;;1.50;;
63693;SDS011;49839;51.798;10.954;2023-09-30T14:40:38;9.00;;;1.60;;
63693;SDS011;49839;51.798;10.954;2023-09-30T14:43:06;8.07;;;1.60;;
63693;SDS011;49839;51.798;10.954;2023-09-30T14:45:39;6.70;;;1.75;;
63693;SDS011;49839;51.798;10.954;2023-09-30T14:48:08;7.03;;;1.38;;
63693;SDS011;49839;51.798;10.954;2023-09-30T14:53:04;8.32;;;2.05;;
63693;SDS011;49839;51.798;10.954;2023-09-30T14:55:34;6.80;;;1.52;;
63693;SDS011;49839;51.798;10.954;2023-09-30T14:58:02;5.90;;;1.60;;
63693;SDS011;49839;51.798;10.954;2023-09-30T15:00:30;6.57;;;1.70;;
63693;SDS011;49839;51.798;10.954;2023-09-30T15:02:58;6.43;;;1.70;;
63693;SDS011;49839;51.798;10.954;2023-09-30T15:05:27;6.43;;;1.77;;
63693;SDS011;49839;51.798;10.954;2023-09-30T15:07:55;6.43;;;1.65;;
63693;SDS011;49839;51.798;10.954;2023-09-30T15:10:23;7.38;;;1.90;;
63693;SDS011;49839;51.798;10.954;2023-09-30T15:12:51;6.28;;;1.75;;
63693;SDS011;49839;51.798;10.954;2023-09-30T15:15:19;6.65;;;1.58;;
63693;SDS011;49839;51.798;10.954;2023-09-30T15:17:47;8.73;;;1.70;;
63693;SDS011;49839;51.798;10.954;2023-09-30T15:20:15;8.20;;;1.60;;